Time;durP1;ratioP1;P1;durP2;ratioP2;P2;SDS_P1;SDS_P2;PMS_P1;PMS_P2;Temp;Humidity;BMP_temperature;BMP_pressure;BME280_temperature;BME280_humidity;BME280_pressure;Samples;Min_cycle;Max_cycle;Signal;HPM_P1;HPM_P2
2023/02/28 00:00:18;;;;;;;6.07;5.57;;;;;;;-3.00;76.10;97335.44;5053411;28;20182;-75
2023/02/28 00:02:45;;;;;;;5.73;5.23;;;;;;;-3.03;76.45;97330.59;5052489;28;20214;-75
2023/02/28 00:05:13;;;;;;;6.83;5.23;;;;;;;-3.07;76.61;97330.06;5052846;28;20204;-78
2023/02/28 00:07:38;;;;;;;6.40;5.90;;;;;;;-3.08;77.29;97338.69;5052860;28;20635;-76
2023/02/28 00:10:07;;;;;;;6.60;6.10;;;;;;;-3.04;76.83;97329.78;5052773;28;20285;-75
2023/02/28 00:12:33;;;;;;;6.33;5.90;;;;;;;-3.08;77.12;97325.88;5052904;28;20190;-75
2023/02/28 00:14:58;;;;;;;6.13;5.63;;;;;;;-3.13;77.82;97329.75;5052695;28;20205;-75
2023/02/28 00:17:24;;;;;;;6.53;5.87;;;;;;;-3.11;77.57;97327.84;5052756;28;20190;-75
2023/02/28 00:19:50;;;;;;;6.40;5.90;;;;;;;-3.12;78.13;97324.47;5053468;28;20252;-76
2023/02/28 00:22:18;;;;;;;6.87;6.37;;;;;;;-3.12;78.28;97323.69;5052208;28;20210;-76
2023/02/28 00:24:43;;;;;;;6.73;6.27;;;;;;;-3.12;77.70;97332.16;5052740;28;20190;-75
2023/02/28 00:27:09;;;;;;;6.93;6.33;;;;;;;-3.14;78.67;97325.56;5052925;28;20524;-75
2023/02/28 00:29:34;;;;;;;6.67;6.03;;;;;;;-3.13;78.48;97325.44;5053877;28;20570;-76
2023/02/28 00:32:00;;;;;;;5.93;5.53;;;;;;;-3.14;78.73;97321.25;5053224;28;20197;-76
2023/02/28 00:34:25;;;;;;;6.20;5.63;;;;;;;-3.19;78.71;97322.56;5050945;28;20246;-78
2023/02/28 00:36:50;;;;;;;6.13;5.67;;;;;;;-3.24;78.64;97330.66;5051737;28;20205;-76
2023/02/28 00:39:16;;;;;;;10.50;9.63;;;;;;;-3.24;79.39;97329.84;5051904;28;20198;-76
2023/02/28 00:41:42;;;;;;;6.43;5.93;;;;;;;-3.27;79.56;97327.50;5052269;28;20229;-76
2023/02/28 00:44:07;;;;;;;6.20;5.70;;;;;;;-3.29;79.39;97327.66;5052332;28;20295;-76
2023/02/28 00:46:32;;;;;;;6.10;5.50;;;;;;;-3.23;79.88;97327.13;5053281;28;20190;-76
2023/02/28 00:48:58;;;;;;;7.17;6.17;;;;;;;-3.33;80.09;97326.25;5052523;28;20198;-76
2023/02/28 00:51:23;;;;;;;6.90;6.40;;;;;;;-3.35;80.36;97323.03;5049931;28;20272;-76
2023/02/28 00:53:49;;;;;;;6.00;5.50;;;;;;;-3.38;80.92;97326.66;5050988;28;20189;-73
2023/02/28 00:56:14;;;;;;;7.23;6.17;;;;;;;-3.30;81.36;97326.03;5051159;28;20244;-75
2023/02/28 00:58:39;;;;;;;6.10;5.57;;;;;;;-3.33;81.04;97323.69;5052177;28;20281;-76
2023/02/28 01:01:05;;;;;;;7.13;6.53;;;;;;;-3.37;81.57;97330.03;5054785;28;20277;-75
2023/02/28 01:03:30;;;;;;;8.90;6.53;;;;;;;-3.35;81.83;97323.03;5055593;28;20221;-76
2023/02/28 01:05:56;;;;;;;7.67;7.00;;;;;;;-3.41;82.08;97331.22;5055184;28;20194;-76
2023/02/28 01:08:21;;;;;;;7.57;6.70;;;;;;;-3.42;82.38;97324.47;5053385;28;20205;-76
2023/02/28 01:10:47;;;;;;;7.13;6.50;;;;;;;-3.44;82.64;97324.59;5053936;28;20224;-75
2023/02/28 01:13:13;;;;;;;7.07;6.47;;;;;;;-3.49;83.31;97313.91;5055704;28;20204;-76
2023/02/28 01:15:43;;;;;;;8.00;6.90;;;;;;;-3.43;82.77;97318.53;5053872;28;20194;-76
2023/02/28 01:18:09;;;;;;;7.50;6.90;;;;;;;-3.53;84.30;97315.13;5055054;28;20198;-76
2023/02/28 01:20:37;;;;;;;8.13;7.33;;;;;;;-3.54;84.27;97316.03;5054988;28;20635;-76
2023/02/28 01:23:02;;;;;;;9.00;8.30;;;;;;;-3.52;84.64;97315.94;5054199;28;20206;-76
2023/02/28 01:25:27;;;;;;;8.87;8.20;;;;;;;-3.55;84.62;97313.59;5055479;28;20545;-75
2023/02/28 01:27:53;;;;;;;7.40;6.80;;;;;;;-3.53;85.31;97324.53;5055402;28;20276;-75
2023/02/28 01:30:18;;;;;;;7.57;6.97;;;;;;;-3.47;85.39;97306.94;5055250;28;20197;-74
2023/02/28 01:32:43;;;;;;;7.03;6.53;;;;;;;-3.49;85.33;97319.03;5055430;28;20197;-74
2023/02/28 01:35:09;;;;;;;6.70;6.20;;;;;;;-3.54;85.93;97310.91;5053048;28;20230;-74
2023/02/28 01:37:34;;;;;;;7.93;7.20;;;;;;;-3.60;86.68;97320.84;5055618;28;20193;-75
2023/02/28 01:39:59;;;;;;;6.50;5.90;;;;;;;-3.60;87.16;97313.16;5054830;28;20198;-74
2023/02/28 01:42:25;;;;;;;7.17;6.53;;;;;;;-3.56;87.40;97317.91;5054883;28;20271;-74
2023/02/28 01:44:58;;;;;;;7.00;6.40;;;;;;;-3.59;87.76;97322.47;5054883;28;20387;-74
2023/02/28 01:47:28;;;;;;;7.77;6.50;;;;;;;-3.61;88.26;97311.53;5054871;28;20182;-74
2023/02/28 01:49:54;;;;;;;6.30;5.80;;;;;;;-3.57;87.83;97312.94;5054755;28;20232;-74
2023/02/28 01:52:20;;;;;;;6.67;6.07;;;;;;;-3.55;88.11;97313.59;5052852;28;20706;-74
2023/02/28 01:54:51;;;;;;;6.50;6.00;;;;;;;-3.50;87.90;97303.78;5054517;28;20396;-74
2023/02/28 01:57:20;;;;;;;7.07;6.47;;;;;;;-3.51;87.53;97300.41;5054848;28;20186;-74
2023/02/28 01:59:52;;;;;;;6.83;6.23;;;;;;;-3.55;88.31;97298.22;5054874;28;20190;-75
2023/02/28 02:02:20;;;;;;;7.10;6.50;;;;;;;-3.50;88.92;97304.59;5054482;28;20185;-75
2023/02/28 02:05:06;;;;;;;7.40;6.27;;;;;;;-3.55;88.97;97298.22;5054180;28;20194;-74
2023/02/28 02:07:35;;;;;;;6.93;6.03;;;;;;;-3.48;88.79;97296.78;5054918;28;20194;-75
2023/02/28 02:10:27;;;;;;;6.60;6.00;;;;;;;-3.44;89.35;97296.41;5054414;28;20202;-76
2023/02/28 02:12:58;;;;;;;6.97;6.30;;;;;;;-3.50;90.25;97294.34;5053452;28;20190;-74
2023/02/28 02:15:36;;;;;;;7.13;6.50;;;;;;;-3.50;90.29;97285.84;5054473;28;20231;-74
2023/02/28 02:18:22;;;;;;;6.73;6.13;;;;;;;-3.44;90.27;97290.47;5054005;28;20185;-74
2023/02/28 02:20:57;;;;;;;6.67;6.17;;;;;;;-3.44;89.83;97278.47;5054730;28;20292;-73
2023/02/28 02:23:51;;;;;;;7.43;6.80;;;;;;;-3.51;90.73;97281.69;5054487;28;20239;-74
2023/02/28 02:26:47;;;;;;;6.87;6.17;;;;;;;-3.52;90.86;97286.00;5025034;28;20236;-74
2023/02/28 02:29:35;;;;;;;7.30;6.70;;;;;;;-3.55;91.78;97278.56;5055459;28;20550;-75
2023/02/28 02:32:22;;;;;;;7.67;7.07;;;;;;;-3.56;91.80;97282.03;5055077;28;20236;-74
2023/02/28 02:35:02;;;;;;;7.43;6.83;;;;;;;-3.46;92.03;97266.75;5040848;28;20230;-74
2023/02/28 02:37:42;;;;;;;7.50;6.90;;;;;;;-3.47;92.32;97263.38;5054360;28;20256;-74
2023/02/28 02:40:19;;;;;;;7.63;6.97;;;;;;;-3.46;91.87;97261.63;5053611;28;20194;-74
2023/02/28 02:43:06;;;;;;;7.73;7.13;;;;;;;-3.44;92.32;97273.34;5054077;28;20190;-75
2023/02/28 02:45:37;;;;;;;7.13;6.53;;;;;;;-3.46;92.69;97267.56;5053486;28;20194;-74
2023/02/28 02:48:06;;;;;;;7.97;7.23;;;;;;;-3.41;92.61;97270.56;5053480;28;20269;-74
2023/02/28 02:50:39;;;;;;;7.60;7.00;;;;;;;-3.43;92.66;97276.72;5051764;28;20198;-75
2023/02/28 02:53:06;;;;;;;7.67;7.07;;;;;;;-3.42;93.01;97268.09;5053703;28;20182;-74
2023/02/28 02:55:37;;;;;;;10.20;7.87;;;;;;;-3.44;92.81;97270.78;5053240;28;20193;-74
2023/02/28 02:58:07;;;;;;;8.00;7.20;;;;;;;-3.40;94.10;97268.81;5053377;28;20209;-74
2023/02/28 03:00:39;;;;;;;7.93;7.13;;;;;;;-3.33;92.97;97276.75;5053938;28;20198;-74
2023/02/28 03:03:07;;;;;;;8.20;7.40;;;;;;;-3.40;93.23;97277.28;5053357;28;20200;-74
2023/02/28 03:05:52;;;;;;;7.70;7.00;;;;;;;-3.39;94.13;97281.47;5052943;28;20202;-74
2023/02/28 03:08:17;;;;;;;8.40;7.70;;;;;;;-3.43;94.27;97274.97;5052722;28;20255;-74
2023/02/28 03:10:46;;;;;;;10.13;7.60;;;;;;;-3.38;94.74;97274.59;5053062;28;20710;-74
2023/02/28 03:13:34;;;;;;;8.33;7.60;;;;;;;-3.40;94.63;97274.72;5053720;28;20197;-75
2023/02/28 03:16:45;;;;;;;7.73;7.00;;;;;;;-3.39;95.38;97278.09;5051903;28;20654;-75
2023/02/28 03:19:49;;;;;;;8.47;7.30;;;;;;;-3.45;95.17;97279.41;5018409;28;20288;-76
2023/02/28 03:22:24;;;;;;;6.93;6.23;;;;;;;-3.41;95.23;97280.81;4989906;28;20246;-74
2023/02/28 03:25:08;;;;;;;7.23;6.63;;;;;;;-3.30;95.65;97279.09;4978220;28;20195;-74
2023/02/28 03:27:42;;;;;;;7.77;7.07;;;;;;;-3.29;95.55;97281.53;4991084;28;20205;-74
2023/02/28 03:30:30;;;;;;;8.47;7.37;;;;;;;-3.32;96.20;97279.22;4991650;28;20228;-74
2023/02/28 03:33:04;;;;;;;9.33;8.43;;;;;;;-3.40;96.33;97279.84;4975229;28;20195;-74
2023/02/28 03:35:34;;;;;;;8.23;7.63;;;;;;;-3.32;96.87;97275.81;4979510;28;20231;-74
2023/02/28 03:38:07;;;;;;;9.07;7.47;;;;;;;-3.28;96.86;97275.44;4973099;28;20272;-74
2023/02/28 03:40:37;;;;;;;9.80;7.63;;;;;;;-3.34;97.83;97270.81;4974319;28;20200;-75
2023/02/28 03:43:10;;;;;;;10.17;9.23;;;;;;;-3.40;97.09;97267.03;4991203;28;20224;-75
2023/02/28 03:45:38;;;;;;;9.13;8.30;;;;;;;-3.31;97.63;97268.03;4991204;28;20557;-75
2023/02/28 03:48:13;;;;;;;9.00;8.20;;;;;;;-3.23;97.75;97273.31;4976686;28;20288;-76
2023/02/28 03:50:47;;;;;;;8.13;7.43;;;;;;;-3.28;98.04;97270.31;4985350;28;20206;-75
2023/02/28 03:53:13;;;;;;;9.50;8.60;;;;;;;-3.24;97.28;97273.44;5023660;28;20206;-74
2023/02/28 03:55:44;;;;;;;9.20;7.77;;;;;;;-3.28;98.10;97272.06;5051629;28;20190;-75
2023/02/28 03:58:24;;;;;;;8.83;7.80;;;;;;;-3.29;98.44;97267.91;5052887;28;20178;-74
2023/02/28 04:00:57;;;;;;;8.47;7.57;;;;;;;-3.32;98.51;97274.09;5052719;28;20230;-74
2023/02/28 04:03:23;;;;;;;8.57;7.80;;;;;;;-3.26;98.03;97272.75;5052615;28;20205;-75
2023/02/28 04:05:56;;;;;;;8.23;7.53;;;;;;;-3.27;98.60;97274.50;5052829;28;20213;-75
2023/02/28 04:08:22;;;;;;;10.83;7.47;;;;;;;-3.10;98.18;97273.09;5053837;28;20186;-74
2023/02/28 04:11:08;;;;;;;8.73;8.00;;;;;;;-3.11;97.96;97277.41;5051062;28;20282;-76
2023/02/28 04:13:33;;;;;;;9.17;7.67;;;;;;;-3.17;98.11;97279.66;5052867;28;20536;-74
2023/02/28 04:15:59;;;;;;;7.80;7.10;;;;;;;-3.08;97.75;97289.16;5052922;28;20205;-74
2023/02/28 04:18:24;;;;;;;9.63;8.30;;;;;;;-3.11;97.98;97286.84;5051780;28;20189;-74
2023/02/28 04:20:49;;;;;;;8.03;7.27;;;;;;;-3.21;97.84;97279.13;5052867;28;20197;-74
2023/02/28 04:23:15;;;;;;;8.30;7.50;;;;;;;-3.11;98.32;97279.16;5052341;28;20212;-75
2023/02/28 04:25:40;;;;;;;8.57;7.77;;;;;;;-3.06;97.83;97272.69;5052108;28;20284;-74
2023/02/28 04:28:06;;;;;;;10.07;7.57;;;;;;;-3.09;97.69;97280.66;5052558;28;20201;-74
2023/02/28 04:30:32;;;;;;;8.17;7.37;;;;;;;-3.08;98.40;97277.16;5052770;28;20198;-74
2023/02/28 04:32:58;;;;;;;12.50;7.43;;;;;;;-3.16;98.26;97276.97;5052438;28;20197;-75
2023/02/28 04:35:23;;;;;;;10.50;8.30;;;;;;;-3.18;99.00;97278.88;5054896;28;20225;-75
2023/02/28 04:37:48;;;;;;;8.13;7.27;;;;;;;-3.12;98.77;97273.22;5056058;28;20193;-74
2023/02/28 04:40:14;;;;;;;8.13;7.43;;;;;;;-3.19;99.07;97277.25;5055925;28;20218;-75
2023/02/28 04:42:39;;;;;;;10.67;8.10;;;;;;;-3.15;98.64;97270.09;5056215;28;20229;-74
2023/02/28 04:45:05;;;;;;;10.03;7.97;;;;;;;-3.14;98.88;97277.66;5056195;28;20276;-74
2023/02/28 04:47:31;;;;;;;7.77;6.97;;;;;;;-3.20;99.30;97272.25;5055657;28;20201;-74
2023/02/28 04:49:56;;;;;;;8.70;7.57;;;;;;;-3.11;99.38;97276.59;5053902;28;20194;-75
2023/02/28 04:52:21;;;;;;;9.13;8.30;;;;;;;-3.10;99.64;97275.66;5056408;28;20273;-74
2023/02/28 04:54:47;;;;;;;8.87;8.10;;;;;;;-3.18;99.53;97278.88;5056082;28;20193;-74
2023/02/28 04:57:12;;;;;;;10.50;8.10;;;;;;;-3.13;99.69;97271.59;5055845;28;20194;-75
2023/02/28 04:59:38;;;;;;;9.97;8.97;;;;;;;-3.16;99.93;97287.22;5054542;28;20225;-74
2023/02/28 05:02:06;;;;;;;9.90;8.87;;;;;;;-3.08;99.80;97281.47;5055977;28;20193;-75
2023/02/28 05:04:35;;;;;;;10.37;9.40;;;;;;;-3.13;99.75;97281.06;5055799;28;20244;-75
2023/02/28 05:07:01;;;;;;;10.70;9.80;;;;;;;-3.06;100.00;97279.56;5055447;28;20197;-75
2023/02/28 05:09:27;;;;;;;10.33;8.73;;;;;;;-3.12;100.00;97277.56;5055838;28;20550;-74
2023/02/28 05:11:53;;;;;;;11.13;10.13;;;;;;;-3.08;100.00;97281.47;5055461;28;20186;-74
2023/02/28 05:14:18;;;;;;;12.43;11.23;;;;;;;-3.11;100.00;97279.97;5055861;28;20197;-74
2023/02/28 05:16:44;;;;;;;11.83;10.90;;;;;;;-3.07;100.00;97272.84;5054425;28;20186;-74
2023/02/28 05:19:09;;;;;;;12.73;11.63;;;;;;;-3.16;100.00;97263.34;5055049;28;20197;-73
2023/02/28 05:21:50;;;;;;;12.87;11.67;;;;;;;-2.99;100.00;97273.00;5054130;28;20279;-74
2023/02/28 05:24:22;;;;;;;12.27;11.27;;;;;;;-2.99;100.00;97283.25;5055077;28;20698;-74
2023/02/28 05:26:48;;;;;;;12.47;11.47;;;;;;;-2.97;100.00;97282.19;5055446;28;20194;-74
2023/02/28 05:29:13;;;;;;;12.70;11.53;;;;;;;-3.05;100.00;97291.44;5055190;28;20201;-74
2023/02/28 05:31:38;;;;;;;11.70;10.70;;;;;;;-3.00;100.00;97279.88;5054966;28;20681;-74
2023/02/28 05:34:04;;;;;;;11.23;10.33;;;;;;;-3.02;100.00;97283.53;5054670;28;20257;-74
2023/02/28 05:36:30;;;;;;;10.60;9.60;;;;;;;-3.06;100.00;97279.56;5054991;28;20608;-75
2023/02/28 05:38:55;;;;;;;13.73;9.63;;;;;;;-3.00;100.00;97284.19;5054798;28;20319;-74
2023/02/28 05:41:21;;;;;;;12.87;11.77;;;;;;;-3.05;100.00;97283.75;5054572;28;20602;-74
2023/02/28 05:43:47;;;;;;;9.73;8.90;;;;;;;-3.05;100.00;97287.13;5055078;28;20657;-74
2023/02/28 05:46:13;;;;;;;8.73;7.90;;;;;;;-3.03;100.00;97290.41;5054054;28;20289;-74
2023/02/28 05:48:39;;;;;;;9.67;8.70;;;;;;;-3.00;100.00;97290.13;5054089;28;20659;-74
2023/02/28 05:51:06;;;;;;;9.47;8.57;;;;;;;-2.96;100.00;97291.50;5050016;28;20532;-75
2023/02/28 05:53:32;;;;;;;8.63;7.80;;;;;;;-3.02;100.00;97294.59;5054730;28;20274;-74
2023/02/28 05:55:57;;;;;;;11.90;9.83;;;;;;;-2.90;100.00;97297.06;5054434;28;20269;-76
2023/02/28 05:58:25;;;;;;;10.03;9.10;;;;;;;-2.96;100.00;97294.06;5053341;28;20312;-74
2023/02/28 06:00:50;;;;;;;11.60;9.63;;;;;;;-2.94;100.00;97299.03;5055000;28;20548;-73
2023/02/28 06:03:16;;;;;;;11.53;9.40;;;;;;;-2.98;100.00;97295.13;5054401;28;20206;-74
2023/02/28 06:05:41;;;;;;;10.23;9.13;;;;;;;-3.00;100.00;97297.81;5053832;28;20269;-74
2023/02/28 06:08:07;;;;;;;9.63;8.70;;;;;;;-2.92;100.00;97297.16;5054634;28;20608;-74
2023/02/28 06:10:33;;;;;;;13.27;9.47;;;;;;;-2.96;100.00;97298.38;5054370;28;20658;-74
2023/02/28 06:13:05;;;;;;;11.43;9.13;;;;;;;-2.92;100.00;97297.16;5054643;28;20218;-74
2023/02/28 06:15:31;;;;;;;11.87;10.33;;;;;;;-2.90;100.00;97302.19;5054349;28;20229;-74
2023/02/28 06:17:58;;;;;;;10.07;9.17;;;;;;;-3.01;100.00;97301.31;5054233;28;20232;-74
2023/02/28 06:20:28;;;;;;;10.60;9.70;;;;;;;-2.96;100.00;97301.75;5053493;28;20218;-74
2023/02/28 06:22:55;;;;;;;16.80;10.57;;;;;;;-2.86;100.00;97301.78;5055092;28;20256;-75
2023/02/28 06:25:21;;;;;;;9.93;8.77;;;;;;;-2.84;100.00;97302.44;5053011;28;20191;-75
2023/02/28 06:27:47;;;;;;;13.00;11.80;;;;;;;-2.78;100.00;97306.25;5054013;28;20281;-74
2023/02/28 06:30:13;;;;;;;10.20;9.10;;;;;;;-2.81;100.00;97314.22;5053331;28;20235;-74
2023/02/28 06:32:39;;;;;;;13.37;10.57;;;;;;;-2.72;100.00;97319.34;5053952;28;20198;-74
2023/02/28 06:35:05;;;;;;;16.33;10.83;;;;;;;-2.80;100.00;97313.28;5053324;28;20291;-74
2023/02/28 06:37:31;;;;;;;15.40;11.97;;;;;;;-2.78;100.00;97316.50;5054186;28;20198;-74
2023/02/28 06:39:57;;;;;;;13.63;12.53;;;;;;;-2.73;99.89;97330.56;5054293;28;20550;-74
2023/02/28 06:42:28;;;;;;;13.60;10.80;;;;;;;-2.65;98.74;97328.16;5053847;28;20240;-76
2023/02/28 06:44:56;;;;;;;14.07;11.10;;;;;;;-2.65;98.02;97329.91;5055047;28;20187;-75
2023/02/28 06:47:21;;;;;;;11.90;10.07;;;;;;;-2.59;97.85;97325.06;5053503;28;20274;-76
2023/02/28 06:49:47;;;;;;;10.33;9.33;;;;;;;-2.71;98.54;97326.13;5053477;28;20202;-74
2023/02/28 06:52:14;;;;;;;11.37;10.23;;;;;;;-2.62;98.14;97329.66;5054233;28;20190;-74
2023/02/28 06:54:39;;;;;;;11.37;9.67;;;;;;;-2.58;97.46;97334.41;5053986;28;20186;-74
2023/02/28 06:57:04;;;;;;;12.67;10.60;;;;;;;-2.67;97.69;97326.66;5053341;28;20190;-75
2023/02/28 06:59:30;;;;;;;11.37;10.10;;;;;;;-2.54;97.04;97324.69;5053451;28;20221;-75
2023/02/28 07:01:55;;;;;;;12.53;9.80;;;;;;;-2.36;96.31;97332.53;5053424;28;20608;-76
2023/02/28 07:04:21;;;;;;;14.47;10.50;;;;;;;-2.41;95.92;97334.69;5053515;28;20214;-75
2023/02/28 07:06:47;;;;;;;12.77;10.37;;;;;;;-2.58;96.68;97336.16;5053301;28;20202;-74
2023/02/28 07:09:13;;;;;;;13.77;11.53;;;;;;;-2.56;96.32;97340.19;5053685;28;20210;-75
2023/02/28 07:11:39;;;;;;;14.80;11.17;;;;;;;-2.58;96.54;97336.97;5053238;28;20320;-75
2023/02/28 07:14:04;;;;;;;13.27;11.17;;;;;;;-2.56;96.46;97339.38;5053623;28;20277;-75
2023/02/28 07:16:30;;;;;;;14.70;13.07;;;;;;;-2.59;96.85;97348.16;5052224;28;20193;-76
2023/02/28 07:18:55;;;;;;;15.80;14.27;;;;;;;-0.90;100.00;97344.16;5052596;28;20194;-74
2023/02/28 07:21:21;;;;;;;15.50;13.90;;;;;;;-1.15;93.31;97356.81;5052777;28;20194;-75
2023/02/28 07:23:47;;;;;;;14.77;11.90;;;;;;;-2.04;94.55;97347.72;5052970;28;20564;-75
2023/02/28 07:26:16;;;;;;;12.03;10.77;;;;;;;-2.30;96.41;97350.00;5052618;28;20182;-74
2023/02/28 07:28:43;;;;;;;12.10;10.30;;;;;;;-2.24;95.57;97342.56;5053150;28;20609;-77
2023/02/28 07:31:10;;;;;;;11.30;10.10;;;;;;;-2.45;96.68;97346.97;5052418;28;20194;-74
2023/02/28 07:33:36;;;;;;;14.37;10.60;;;;;;;-2.45;96.79;97354.66;5051621;28;20226;-74
2023/02/28 07:36:07;;;;;;;14.07;12.77;;;;;;;-2.36;95.47;97341.06;5052131;28;20678;-74
2023/02/28 07:38:37;;;;;;;13.20;11.27;;;;;;;-2.32;94.33;97346.72;5052502;28;20237;-74
2023/02/28 07:41:06;;;;;;;14.47;12.23;;;;;;;-2.37;94.66;97352.25;5051779;28;20194;-74
2023/02/28 07:43:32;;;;;;;12.40;11.00;;;;;;;-2.35;94.62;97355.53;5052125;28;20233;-74
2023/02/28 07:46:06;;;;;;;12.50;11.20;;;;;;;-2.43;95.00;97349.41;5052437;28;20250;-78
2023/02/28 07:48:31;;;;;;;13.70;11.73;;;;;;;-2.40;94.48;97346.59;5051074;28;20607;-74
2023/02/28 07:50:58;;;;;;;12.63;11.00;;;;;;;-2.35;94.17;97350.38;5052716;28;20186;-74
2023/02/28 07:53:23;;;;;;;13.67;11.43;;;;;;;-2.28;93.55;97351.47;5052420;28;20190;-74
2023/02/28 07:55:49;;;;;;;12.47;11.17;;;;;;;-2.26;93.92;97354.72;5052403;28;20260;-74
2023/02/28 07:58:14;;;;;;;13.23;11.93;;;;;;;-2.19;93.43;97363.53;5052120;28;20666;-75
2023/02/28 08:00:40;;;;;;;14.20;12.70;;;;;;;-2.20;93.09;97361.88;5052640;28;20684;-74
2023/02/28 08:03:05;;;;;;;14.30;12.80;;;;;;;-2.18;93.32;97360.00;5052469;28;20317;-75
2023/02/28 08:05:30;;;;;;;18.53;13.47;;;;;;;-2.17;93.60;97363.38;5051068;28;20193;-75
2023/02/28 08:07:56;;;;;;;15.30;12.60;;;;;;;-2.04;93.54;97352.84;5052754;28;20190;-75
2023/02/28 08:10:21;;;;;;;13.97;12.57;;;;;;;-2.06;93.57;97365.81;5059039;28;20212;-74
2023/02/28 08:12:46;;;;;;;14.33;12.33;;;;;;;-1.91;93.03;97366.25;5059104;28;20248;-75
2023/02/28 08:15:12;;;;;;;14.20;12.70;;;;;;;-1.88;92.24;97373.66;5058739;28;20256;-76
2023/02/28 08:17:37;;;;;;;14.23;11.80;;;;;;;-2.07;92.42;97371.09;5058811;28;20177;-75
2023/02/28 08:20:04;;;;;;;14.33;11.37;;;;;;;-1.90;91.40;97371.25;5059032;28;20193;-75
2023/02/28 08:22:29;;;;;;;14.13;12.73;;;;;;;-2.14;93.24;97368.25;5058683;28;20300;-74
2023/02/28 08:24:54;;;;;;;14.97;11.83;;;;;;;-2.07;92.35;97377.06;5059125;28;20185;-74
2023/02/28 08:27:20;;;;;;;15.73;12.20;;;;;;;-2.26;92.69;97369.31;5058745;28;20194;-75
2023/02/28 08:29:45;;;;;;;14.10;12.77;;;;;;;-1.98;92.06;97371.09;5059052;28;20289;-74
2023/02/28 08:32:11;;;;;;;15.70;12.00;;;;;;;-2.00;92.11;97367.03;5058388;28;20665;-75
2023/02/28 08:34:39;;;;;;;14.30;12.90;;;;;;;-2.00;92.54;97367.84;5057148;28;20221;-75
2023/02/28 08:37:04;;;;;;;14.57;12.77;;;;;;;-1.96;91.67;97373.53;5059136;28;20190;-75
2023/02/28 08:39:29;;;;;;;15.67;14.07;;;;;;;-2.00;91.80;97375.53;5057054;28;20209;-74
2023/02/28 08:41:55;;;;;;;18.70;14.43;;;;;;;-1.99;92.43;97371.22;5058317;28;20189;-75
2023/02/28 08:44:20;;;;;;;20.50;13.23;;;;;;;-2.10;91.75;97367.84;5040694;28;20296;-75
2023/02/28 08:46:45;;;;;;;13.60;12.23;;;;;;;-1.97;92.52;97365.03;5058542;28;20532;-75
2023/02/28 08:49:11;;;;;;;15.03;11.80;;;;;;;-1.95;91.44;97365.69;5056446;28;20654;-76
2023/02/28 08:51:38;;;;;;;14.13;12.73;;;;;;;-1.74;91.14;97381.00;5058753;28;20193;-74
2023/02/28 08:54:03;;;;;;;13.40;12.00;;;;;;;-1.76;90.82;97375.97;5058756;28;20190;-75
2023/02/28 08:56:29;;;;;;;13.07;11.67;;;;;;;-1.76;90.95;97378.53;5058922;28;20194;-74
2023/02/28 08:58:56;;;;;;;13.03;11.63;;;;;;;-1.64;90.06;97384.38;5058753;28;20186;-74
2023/02/28 09:01:27;;;;;;;13.33;11.90;;;;;;;-1.63;90.27;97383.41;5058682;28;20186;-75
2023/02/28 09:03:54;;;;;;;14.67;12.17;;;;;;;-1.80;90.13;97389.22;5058161;28;20739;-74
2023/02/28 09:06:22;;;;;;;12.97;11.17;;;;;;;-1.86;91.06;97379.50;5059154;28;20186;-74
2023/02/28 09:08:48;;;;;;;15.17;11.37;;;;;;;-1.80;89.82;97387.47;5059051;28;20194;-74
2023/02/28 09:11:13;;;;;;;16.30;12.90;;;;;;;-1.77;90.09;97387.19;5058506;28;20631;-74
2023/02/28 09:13:39;;;;;;;12.53;11.17;;;;;;;-1.66;89.28;97393.94;5058593;28;20194;-75
2023/02/28 09:16:07;;;;;;;13.03;11.43;;;;;;;-1.87;89.95;97383.81;5058440;28;20209;-74
2023/02/28 09:18:37;;;;;;;15.00;12.30;;;;;;;-1.83;89.70;97398.00;5056883;28;20190;-74
2023/02/28 09:21:08;;;;;;;12.37;11.20;;;;;;;-1.67;89.40;97388.97;5055281;28;20174;-74
2023/02/28 09:23:34;;;;;;;15.13;12.17;;;;;;;-1.67;89.58;97388.97;5055778;28;20229;-75
2023/02/28 09:25:59;;;;;;;12.97;11.40;;;;;;;-1.49;89.18;97395.84;5056082;28;20217;-74
2023/02/28 09:28:25;;;;;;;15.03;13.50;;;;;;;-1.35;87.37;97392.88;5055648;28;20196;-76
2023/02/28 09:30:53;;;;;;;14.70;11.80;;;;;;;-1.42;88.12;97396.94;5055331;28;20204;-75
2023/02/28 09:33:20;;;;;;;13.60;12.03;;;;;;;-1.31;88.32;97395.97;5054121;28;20198;-75
2023/02/28 09:35:47;;;;;;;12.97;11.53;;;;;;;-1.17;87.04;97399.88;5055277;28;20193;-75
2023/02/28 09:38:12;;;;;;;15.53;13.43;;;;;;;-1.27;86.80;97400.69;5053893;28;20292;-75
2023/02/28 09:40:51;;;;;;;15.70;14.27;;;;;;;-1.29;85.33;97394.09;5054735;28;20197;-75
2023/02/28 09:43:20;;;;;;;15.80;14.03;;;;;;;-1.43;85.99;97403.00;5054832;28;20216;-75
2023/02/28 09:46:00;;;;;;;17.30;14.23;;;;;;;-1.32;86.57;97405.44;5055127;28;20193;-74
2023/02/28 09:48:35;;;;;;;15.70;14.10;;;;;;;-1.32;85.78;97410.56;5040887;28;20276;-76
2023/02/28 09:51:14;;;;;;;15.73;13.97;;;;;;;-1.42;86.57;97402.06;5055375;28;20186;-75
2023/02/28 09:53:39;;;;;;;17.63;15.93;;;;;;;-1.04;84.90;97406.34;5054821;28;20281;-75
2023/02/28 09:56:12;;;;;;;16.30;14.70;;;;;;;-0.94;84.70;97414.03;5053886;28;20651;-75
2023/02/28 09:58:47;;;;;;;14.60;13.10;;;;;;;-0.89;84.25;97414.41;5050528;28;20205;-75
2023/02/28 10:01:23;;;;;;;14.60;11.90;;;;;;;-1.05;84.01;97407.28;5035543;28;20190;-75
2023/02/28 10:04:10;;;;;;;13.67;11.00;;;;;;;-0.98;83.38;97410.13;5054633;28;20212;-75
2023/02/28 10:06:44;;;;;;;12.83;11.43;;;;;;;-0.76;82.82;97414.13;5053231;28;20194;-75
2023/02/28 10:09:22;;;;;;;13.47;12.03;;;;;;;-0.66;82.73;97407.97;5053450;28;20672;-75
2023/02/28 10:11:50;;;;;;;13.93;11.30;;;;;;;-0.64;82.40;97415.56;5054591;28;20208;-75
2023/02/28 10:14:20;;;;;;;15.53;11.73;;;;;;;-0.48;81.19;97411.44;5054161;28;20201;-75
2023/02/28 10:16:51;;;;;;;13.13;11.80;;;;;;;-0.54;80.37;97408.63;5054349;28;20205;-75
2023/02/28 10:19:33;;;;;;;13.77;11.87;;;;;;;-0.43;81.04;97416.16;5052162;28;20235;-76
2023/02/28 10:22:03;;;;;;;12.63;11.43;;;;;;;-0.49;80.18;97422.69;5054175;28;20213;-73
2023/02/28 10:24:40;;;;;;;14.70;11.87;;;;;;;-0.42;80.56;97420.34;5054418;28;20220;-74
2023/02/28 10:27:28;;;;;;;13.00;10.77;;;;;;;-0.50;80.68;97420.25;5054380;28;20193;-75
2023/02/28 10:29:56;;;;;;;13.57;12.13;;;;;;;-0.36;80.52;97430.09;5054295;28;20182;-75
2023/02/28 10:32:25;;;;;;;13.57;12.13;;;;;;;-0.31;79.88;97425.31;5052388;28;20202;-75
2023/02/28 10:34:56;;;;;;;12.80;11.40;;;;;;;0.04;78.24;97424.59;5040093;28;20226;-75
2023/02/28 10:37:22;;;;;;;13.23;11.83;;;;;;;-0.17;78.20;97419.69;5053255;28;20218;-74
2023/02/28 10:39:47;;;;;;;13.73;12.23;;;;;;;-0.09;78.18;97427.50;5053883;28;20225;-76
2023/02/28 10:42:25;;;;;;;15.97;14.47;;;;;;;-0.40;78.33;97422.78;5054012;28;20280;-75
2023/02/28 10:45:05;;;;;;;15.47;14.00;;;;;;;-0.23;78.38;97420.28;5038103;28;20217;-76
2023/02/28 10:47:34;;;;;;;16.33;14.73;;;;;;;-0.08;76.56;97434.28;5044280;28;20198;-74
2023/02/28 10:49:59;;;;;;;14.70;13.10;;;;;;;0.00;77.50;97420.69;5051347;28;20190;-73
2023/02/28 10:52:54;;;;;;;14.70;13.10;;;;;;;0.38;75.52;97417.03;5052704;28;20201;-73
2023/02/28 10:55:24;;;;;;;14.00;12.50;;;;;;;0.48;74.77;97420.34;5031731;28;20198;-73
2023/02/28 10:57:50;;;;;;;14.67;11.50;;;;;;;0.26;74.90;97411.28;5053817;28;20243;-73
2023/02/28 11:00:20;;;;;;;13.20;11.80;;;;;;;0.29;74.67;97418.72;5052828;28;20194;-73
2023/02/28 11:02:46;;;;;;;14.70;12.13;;;;;;;0.47;74.38;97423.06;5051994;28;20205;-72
2023/02/28 11:05:36;;;;;;;13.50;12.10;;;;;;;0.03;74.96;97424.72;5052740;28;20201;-73
2023/02/28 11:08:14;;;;;;;13.00;11.63;;;;;;;0.31;75.39;97421.97;5053460;28;20186;-74
2023/02/28 11:10:46;;;;;;;14.60;12.70;;;;;;;0.11;75.33;97425.66;5051848;28;20197;-76
2023/02/28 11:13:22;;;;;;;14.00;11.80;;;;;;;0.40;75.43;97423.66;5052959;28;20213;-75
2023/02/28 11:15:54;;;;;;;14.33;12.17;;;;;;;0.23;75.90;97418.47;5053105;28;20577;-74
2023/02/28 11:18:29;;;;;;;50.47;47.13;;;;;;;0.20;76.01;97421.38;5052448;28;20603;-75
2023/02/28 11:20:57;;;;;;;14.80;12.83;;;;;;;0.12;76.50;97421.28;5053150;28;20699;-74
2023/02/28 11:23:27;;;;;;;16.97;15.37;;;;;;;-0.11;76.52;97418.28;5051554;28;20740;-75
2023/02/28 11:25:59;;;;;;;14.67;13.20;;;;;;;0.12;76.22;97414.34;5052864;28;20635;-76
2023/02/28 11:28:30;;;;;;;14.37;12.87;;;;;;;0.08;76.16;97414.78;5051756;28;20639;-74
2023/02/28 11:31:09;;;;;;;14.70;12.47;;;;;;;0.49;75.06;97410.84;5052976;28;20198;-75
2023/02/28 11:33:44;;;;;;;13.57;11.97;;;;;;;0.59;73.43;97414.16;5052295;28;20309;-74